createdAt,value
2018-08-30T00:00:35.118Z,46.81
2018-08-30T00:03:03.795Z,46.73
2018-08-30T00:05:32.456Z,47.52
2018-08-30T00:08:01.054Z,47.33
2018-08-30T00:10:29.783Z,47.98
2018-08-30T00:12:59.499Z,48.22
2018-08-30T00:15:28.476Z,47.78
2018-08-30T00:17:57.218Z,47.92
2018-08-30T00:20:39.505Z,47.98
2018-08-30T00:23:08.642Z,48.21
2018-08-30T00:25:37.371Z,47.98
2018-08-30T00:28:06.107Z,48.27
2018-08-30T00:30:48.327Z,47.72
2018-08-30T00:33:17.142Z,47.77
2018-08-30T00:35:46.419Z,48.39
2018-08-30T00:38:15.177Z,47.73
2018-08-30T00:40:44.074Z,48.43
2018-08-30T00:43:12.805Z,48.23
2018-08-30T00:45:41.207Z,47.74
2018-08-30T00:48:09.925Z,47.56
2018-08-30T00:50:38.504Z,47.46
2018-08-30T00:53:06.905Z,47.44
2018-08-30T00:55:35.436Z,47.55
2018-08-30T00:58:03.939Z,46.72
2018-08-30T01:03:34.610Z,48.58
2018-08-30T01:06:03.210Z,48.70
2018-08-30T01:08:32.443Z,48.59
2018-08-30T01:11:19.539Z,48.35
2018-08-30T01:13:48.850Z,48.01
2018-08-30T01:16:17.277Z,48.50
2018-08-30T01:18:45.799Z,47.98
2018-08-30T01:21:14.276Z,48.38
2018-08-30T01:23:43.195Z,48.83
2018-08-30T01:26:13.289Z,49.62
2018-08-30T01:28:41.690Z,49.80
2018-08-30T01:31:10.148Z,50.43
2018-08-30T01:33:38.734Z,50.46
2018-08-30T01:36:08.041Z,49.92
2018-08-30T01:38:36.937Z,50.16
2018-08-30T01:43:58.216Z,50.85
2018-08-30T01:46:26.811Z,51.04
2018-08-30T01:51:57.905Z,49.70
2018-08-30T01:54:26.521Z,51.29
2018-08-30T01:56:55.112Z,50.94
2018-08-30T01:59:46.252Z,50.36
2018-08-30T02:02:14.762Z,50.49
2018-08-30T02:04:43.376Z,50.49
2018-08-30T02:07:12.029Z,51.24
2018-08-30T02:09:40.539Z,51.19
2018-08-30T02:12:09.193Z,51.30
2018-08-30T02:14:37.912Z,51.77
2018-08-30T02:17:06.769Z,52.33
2018-08-30T02:19:57.968Z,52.64
2018-08-30T02:22:26.891Z,52.52
2018-08-30T02:24:55.371Z,52.77
2018-08-30T02:27:24.009Z,53.43
2018-08-30T02:29:52.555Z,52.32
2018-08-30T02:32:21.135Z,52.54
2018-08-30T02:34:50.582Z,52.77
2018-08-30T02:37:19.099Z,53.10
2018-08-30T02:39:47.641Z,53.36
2018-08-30T02:42:16.059Z,53.16
2018-08-30T02:44:44.809Z,53.46
2018-08-30T02:47:13.395Z,53.51
2018-08-30T02:49:41.983Z,53.22
2018-08-30T02:54:38.131Z,53.62
2018-08-30T02:57:06.573Z,54.56
2018-08-30T02:59:44.783Z,55.00
2018-08-30T03:02:13.227Z,55.14
2018-08-30T03:04:41.707Z,54.68
2018-08-30T03:07:10.143Z,54.75
2018-08-30T03:09:39.074Z,55.05
2018-08-30T03:12:07.589Z,55.46
2018-08-30T03:14:36.324Z,55.61
2018-08-30T03:17:05.578Z,55.86
2018-08-30T03:19:34.158Z,56.87
2018-08-30T03:22:02.866Z,56.81
2018-08-30T03:24:31.315Z,57.26
2018-08-30T03:26:59.772Z,57.16
2018-08-30T03:29:28.213Z,56.55
2018-08-30T03:31:56.763Z,56.92
2018-08-30T03:34:25.339Z,56.79
2018-08-30T03:36:53.761Z,57.62
2018-08-30T03:39:22.368Z,57.82
2018-08-30T03:41:50.818Z,58.65
2018-08-30T03:44:19.241Z,58.52
2018-08-30T03:46:47.828Z,59.28
2018-08-30T03:49:16.270Z,58.97
2018-08-30T03:51:44.769Z,59.36
2018-08-30T03:54:13.575Z,59.76
2018-08-30T03:56:41.966Z,60.44
2018-08-30T03:59:11.089Z,61.23
2018-08-30T04:01:40.278Z,63.68
2018-08-30T04:04:08.781Z,67.05
2018-08-30T04:06:37.230Z,68.32
2018-08-30T04:09:28.449Z,69.68
2018-08-30T04:11:56.887Z,69.42
2018-08-30T04:14:25.705Z,70.40
2018-08-30T04:16:54.140Z,70.53
2018-08-30T04:19:27.627Z,70.50
2018-08-30T04:21:56.218Z,72.28
2018-08-30T04:24:24.700Z,72.67
2018-08-30T04:26:53.127Z,72.54
2018-08-30T04:29:21.578Z,73.37
2018-08-30T04:31:50.044Z,72.62
2018-08-30T04:34:18.906Z,72.67
2018-08-30T04:36:47.371Z,72.50
2018-08-30T04:39:15.810Z,73.01
2018-08-30T04:41:44.279Z,73.26
2018-08-30T04:44:12.861Z,73.71
2018-08-30T04:46:41.235Z,73.84
2018-08-30T04:52:02.181Z,73.68
2018-08-30T04:54:31.074Z,74.45
2018-08-30T04:56:59.484Z,73.46
2018-08-30T05:02:21.156Z,73.30
2018-08-30T05:04:49.673Z,73.37
2018-08-30T05:07:18.162Z,73.83
2018-08-30T05:09:46.600Z,73.22
2018-08-30T05:12:15.020Z,72.86
2018-08-30T05:14:43.635Z,73.23
2018-08-30T05:17:12.167Z,73.07
2018-08-30T05:22:33.770Z,74.58
2018-08-30T05:25:02.371Z,74.93
2018-08-30T05:27:30.838Z,76.00
2018-08-30T05:32:52.514Z,76.38
2018-08-30T05:35:21.180Z,76.61
2018-08-30T05:37:49.789Z,76.16
2018-08-30T05:40:18.282Z,76.33
2018-08-30T05:42:46.708Z,77.17
2018-08-30T05:45:15.285Z,77.39
2018-08-30T05:47:43.892Z,76.95
2018-08-30T05:50:21.919Z,76.44
2018-08-30T05:52:50.719Z,76.96
2018-08-30T05:55:19.352Z,77.18
2018-08-30T05:57:47.822Z,77.75
2018-08-30T06:00:16.243Z,77.83
2018-08-30T06:02:44.748Z,77.73
2018-08-30T06:05:13.164Z,77.65
2018-08-30T06:07:41.861Z,76.33
2018-08-30T06:10:10.305Z,75.47
2018-08-30T06:12:38.951Z,75.90
2018-08-30T06:15:07.414Z,74.39
2018-08-30T06:17:35.916Z,73.43
2018-08-30T06:20:04.492Z,73.33
2018-08-30T06:22:32.910Z,73.00
2018-08-30T06:25:01.324Z,73.45
2018-08-30T06:27:30.443Z,73.43
2018-08-30T06:29:58.971Z,73.00
2018-08-30T06:32:27.466Z,73.04
2018-08-30T06:34:55.850Z,72.90
2018-08-30T06:37:24.417Z,73.06
2018-08-30T06:39:54.034Z,73.17
2018-08-30T06:42:22.468Z,73.21
2018-08-30T06:44:50.952Z,73.20
2018-08-30T06:47:19.426Z,73.29
2018-08-30T06:49:47.856Z,73.55
2018-08-30T06:52:16.228Z,73.26
2018-08-30T06:54:44.813Z,73.13
2018-08-30T06:57:24.372Z,73.55
2018-08-30T06:59:57.141Z,73.06
2018-08-30T07:02:25.656Z,73.39
2018-08-30T07:04:55.734Z,73.35
2018-08-30T07:07:25.364Z,73.41
2018-08-30T07:09:53.975Z,72.79
2018-08-30T07:12:22.698Z,73.40
2018-08-30T07:14:51.279Z,74.05
2018-08-30T07:17:22.862Z,74.54
2018-08-30T07:20:00.727Z,74.34
2018-08-30T07:22:30.571Z,74.65
2018-08-30T07:25:00.909Z,75.26
2018-08-30T07:27:34.602Z,74.72
2018-08-30T07:30:03.283Z,74.37
2018-08-30T07:32:31.714Z,74.22
2018-08-30T07:35:00.496Z,73.92
2018-08-30T07:37:28.885Z,73.70
2018-08-30T07:39:57.350Z,74.75
2018-08-30T07:42:25.837Z,74.82
2018-08-30T07:44:54.321Z,74.20
2018-08-30T07:47:23.152Z,74.23
2018-08-30T07:49:51.570Z,74.04
2018-08-30T07:52:20.012Z,73.32
2018-08-30T07:54:48.444Z,73.19
2018-08-30T07:57:16.938Z,73.01
2018-08-30T07:59:50.410Z,72.78
2018-08-30T08:02:19.022Z,72.62
2018-08-30T08:04:47.553Z,72.41
2018-08-30T08:07:16.254Z,71.92
2018-08-30T08:09:44.780Z,71.78
2018-08-30T08:12:13.364Z,70.83
2018-08-30T08:14:41.890Z,72.26
2018-08-30T08:17:10.526Z,72.18
2018-08-30T08:20:01.690Z,73.24
2018-08-30T08:22:30.293Z,72.28
2018-08-30T08:25:01.339Z,72.53
2018-08-30T08:27:29.848Z,71.90
2018-08-30T08:29:59.190Z,72.27
2018-08-30T08:32:27.776Z,71.27
2018-08-30T08:34:56.283Z,71.98
2018-08-30T08:37:26.803Z,72.14
2018-08-30T08:39:55.258Z,72.70
2018-08-30T08:42:24.986Z,72.44
2018-08-30T08:44:53.602Z,73.40
2018-08-30T08:47:22.120Z,72.99
2018-08-30T08:49:50.856Z,73.27
2018-08-30T08:52:19.419Z,72.59
2018-08-30T08:54:52.001Z,72.92
2018-08-30T08:57:20.471Z,73.02
2018-08-30T08:59:49.617Z,73.37
2018-08-30T09:02:18.174Z,74.16
2018-08-30T09:04:46.666Z,74.20
2018-08-30T09:07:15.255Z,73.95
2018-08-30T09:09:44.006Z,74.42
2018-08-30T09:12:12.453Z,75.47
2018-08-30T09:14:41.183Z,76.01
2018-08-30T09:17:09.764Z,76.30
2018-08-30T09:19:38.314Z,76.48
2018-08-30T09:22:19.220Z,76.48
2018-08-30T09:24:59.193Z,77.08
2018-08-30T09:27:27.640Z,76.75
2018-08-30T09:29:56.837Z,77.65
2018-08-30T09:32:25.995Z,77.74
2018-08-30T09:34:55.251Z,78.84
2018-08-30T09:37:24.232Z,79.21
2018-08-30T09:39:52.700Z,79.51
2018-08-30T09:42:21.167Z,79.77
2018-08-30T09:44:49.734Z,79.74
2018-08-30T09:47:18.098Z,80.47
2018-08-30T09:49:51.667Z,81.72
2018-08-30T09:52:24.688Z,82.58
2018-08-30T09:54:53.533Z,82.85
2018-08-30T09:57:22.319Z,82.79
2018-08-30T09:59:50.856Z,82.45
2018-08-30T10:02:25.686Z,82.40
2018-08-30T10:07:33.989Z,81.98
2018-08-30T10:10:12.226Z,82.33
2018-08-30T10:12:41.738Z,82.55
2018-08-30T10:15:12.430Z,82.24
2018-08-30T10:17:41.167Z,82.63
2018-08-30T10:20:09.956Z,82.23
2018-08-30T10:22:38.576Z,81.89
2018-08-30T10:25:07.563Z,82.65
2018-08-30T10:27:36.131Z,81.93
2018-08-30T10:30:05.095Z,81.96
2018-08-30T10:32:34.194Z,82.53
2018-08-30T10:35:02.704Z,81.07
2018-08-30T10:37:31.646Z,82.08
2018-08-30T10:40:00.590Z,81.71
2018-08-30T10:42:29.400Z,81.82
2018-08-30T10:44:58.153Z,82.54
2018-08-30T10:47:27.050Z,82.35
2018-08-30T10:49:56.005Z,81.59
2018-08-30T10:52:25.027Z,81.73
2018-08-30T10:54:53.547Z,81.76
2018-08-30T10:57:22.260Z,81.10
2018-08-30T11:00:00.445Z,81.69
2018-08-30T11:02:30.398Z,81.54
2018-08-30T11:05:00.295Z,82.77
2018-08-30T11:07:29.628Z,82.90
2018-08-30T11:09:59.201Z,82.91
2018-08-30T11:12:29.544Z,83.79
2018-08-30T11:14:59.819Z,83.03
2018-08-30T11:17:28.841Z,82.77
2018-08-30T11:19:57.904Z,83.28
2018-08-30T11:22:26.845Z,82.69
2018-08-30T11:24:55.287Z,82.92
2018-08-30T11:27:27.328Z,82.48
2018-08-30T11:29:56.042Z,83.33
2018-08-30T11:32:25.098Z,83.47
2018-08-30T11:34:54.888Z,83.64
2018-08-30T11:37:23.814Z,83.94
2018-08-30T11:39:57.884Z,83.64
2018-08-30T11:42:26.913Z,84.26
2018-08-30T11:44:55.651Z,84.83
2018-08-30T11:47:24.766Z,84.84
2018-08-30T11:49:54.302Z,85.02
2018-08-30T11:52:23.308Z,85.00
2018-08-30T11:54:52.460Z,83.62
2018-08-30T11:57:21.735Z,84.26
2018-08-30T12:00:00.111Z,83.95
2018-08-30T12:02:30.761Z,83.63
2018-08-30T12:04:59.924Z,83.31
2018-08-30T12:07:29.472Z,82.85
2018-08-30T12:09:59.066Z,83.03
2018-08-30T12:12:27.954Z,82.89
2018-08-30T12:14:56.658Z,82.94
2018-08-30T12:17:26.393Z,83.82
2018-08-30T12:19:55.510Z,83.29
2018-08-30T12:22:24.943Z,83.15
2018-08-30T12:24:53.454Z,83.92
2018-08-30T12:27:22.454Z,83.97
2018-08-30T12:29:56.536Z,84.45
2018-08-30T12:32:25.541Z,83.14
2018-08-30T12:34:54.397Z,82.83
2018-08-30T12:37:23.257Z,82.91
2018-08-30T12:39:52.339Z,82.51
2018-08-30T12:42:21.527Z,82.69
2018-08-30T12:44:50.368Z,82.43
2018-08-30T12:47:19.262Z,82.25
2018-08-30T12:49:57.439Z,81.65
2018-08-30T12:52:26.600Z,82.42
2018-08-30T12:54:56.083Z,81.66
2018-08-30T12:57:25.027Z,81.38
2018-08-30T12:59:54.339Z,81.33
2018-08-30T13:02:23.713Z,81.44
2018-08-30T13:04:52.760Z,81.11
2018-08-30T13:07:23.739Z,80.61
2018-08-30T13:09:57.626Z,79.87
2018-08-30T13:12:26.663Z,78.71
2018-08-30T13:14:56.704Z,79.09
2018-08-30T13:17:26.567Z,79.51
2018-08-30T13:19:55.576Z,79.75
2018-08-30T13:22:24.375Z,79.15
2018-08-30T13:24:54.208Z,79.04
2018-08-30T13:27:23.911Z,79.35
2018-08-30T13:30:06.495Z,78.49
2018-08-30T13:32:35.469Z,78.25
2018-08-30T13:35:04.704Z,77.83
2018-08-30T13:37:34.543Z,76.61
2018-08-30T13:40:05.509Z,75.55
2018-08-30T13:42:34.669Z,75.76
2018-08-30T13:45:04.494Z,74.50
2018-08-30T13:47:34.517Z,74.21
2018-08-30T13:50:04.292Z,73.78
2018-08-30T13:52:33.832Z,74.07
2018-08-30T13:55:03.115Z,74.29
2018-08-30T13:57:32.291Z,74.17
2018-08-30T14:00:03.262Z,74.24
2018-08-30T14:02:32.917Z,72.41
2018-08-30T14:05:01.788Z,72.87
2018-08-30T14:07:30.552Z,72.87
2018-08-30T14:09:59.468Z,72.28
2018-08-30T14:12:28.907Z,72.42
2018-08-30T14:14:57.805Z,72.53
2018-08-30T14:17:26.215Z,72.13
2018-08-30T14:19:57.456Z,72.20
2018-08-30T14:22:27.224Z,72.07
2018-08-30T14:24:56.293Z,71.71
2018-08-30T14:27:25.389Z,72.06
2018-08-30T14:30:00.954Z,71.98
2018-08-30T14:32:30.038Z,71.65
2018-08-30T14:34:59.183Z,71.90
2018-08-30T14:37:29.975Z,72.09
2018-08-30T14:39:59.145Z,71.46
2018-08-30T14:42:28.908Z,70.87
2018-08-30T14:44:58.108Z,71.05
2018-08-30T14:47:27.112Z,71.47
2018-08-30T14:49:56.421Z,71.14
2018-08-30T14:52:25.550Z,70.12
2018-08-30T14:54:54.764Z,69.70
2018-08-30T14:57:24.688Z,69.67
2018-08-30T14:59:54.643Z,69.29
2018-08-30T15:02:23.803Z,69.09
2018-08-30T15:04:52.671Z,68.64
2018-08-30T15:07:21.816Z,68.51
2018-08-30T15:09:51.159Z,68.37
2018-08-30T15:15:00.329Z,68.28
2018-08-30T15:17:29.603Z,67.62
2018-08-30T15:19:58.411Z,65.20
2018-08-30T15:22:26.900Z,63.58
2018-08-30T15:24:55.334Z,63.04
2018-08-30T15:27:23.742Z,63.57
2018-08-30T15:29:52.307Z,63.28
2018-08-30T15:32:20.859Z,63.53
2018-08-30T15:34:49.434Z,63.50
2018-08-30T15:37:17.842Z,63.29
2018-08-30T15:39:46.428Z,63.88
2018-08-30T15:42:15.083Z,63.82
2018-08-30T15:44:45.847Z,63.35
2018-08-30T15:47:14.408Z,63.88
2018-08-30T15:49:42.977Z,63.65
2018-08-30T15:52:11.616Z,63.89
2018-08-30T15:54:40.124Z,64.50
2018-08-30T15:57:09.582Z,63.65
2018-08-30T15:59:40.420Z,64.20
2018-08-30T16:04:54.372Z,64.04
2018-08-30T16:07:22.779Z,64.62
2018-08-30T16:09:51.393Z,64.31
2018-08-30T16:12:20.319Z,65.03
2018-08-30T16:14:48.838Z,64.67
2018-08-30T16:17:17.529Z,64.96
2018-08-30T16:19:45.976Z,65.52
2018-08-30T16:22:14.394Z,67.21
2018-08-30T16:24:42.921Z,69.97
2018-08-30T16:27:11.502Z,71.20
2018-08-30T16:29:40.017Z,73.36
2018-08-30T16:32:08.647Z,74.57
2018-08-30T16:34:37.220Z,74.83
2018-08-30T16:37:05.713Z,76.03
2018-08-30T16:39:34.294Z,77.43
2018-08-30T16:42:02.847Z,78.17
2018-08-30T16:44:31.490Z,79.06
2018-08-30T16:47:00.071Z,79.53
2018-08-30T16:49:28.449Z,80.22
2018-08-30T16:51:57.125Z,80.08
2018-08-30T16:54:25.550Z,80.97
2018-08-30T16:56:54.006Z,81.13
2018-08-30T16:59:22.612Z,81.45
2018-08-30T17:01:51.428Z,81.62
2018-08-30T17:04:19.942Z,81.57
2018-08-30T17:06:48.404Z,81.96
2018-08-30T17:09:16.866Z,81.80
2018-08-30T17:11:45.240Z,82.61
2018-08-30T17:14:13.665Z,82.25
2018-08-30T17:16:42.067Z,82.05
2018-08-30T17:19:20.950Z,82.40
2018-08-30T17:21:49.411Z,82.66
2018-08-30T17:24:17.802Z,82.90
2018-08-30T17:26:46.163Z,83.03
2018-08-30T17:29:14.919Z,83.78
2018-08-30T17:31:43.357Z,82.93
2018-08-30T17:34:11.899Z,82.84
2018-08-30T17:36:40.443Z,83.38
2018-08-30T17:39:09.883Z,82.43
2018-08-30T17:41:41.941Z,83.14
2018-08-30T17:44:11.127Z,84.15
2018-08-30T17:46:40.756Z,84.50
2018-08-30T17:49:09.962Z,84.55
2018-08-30T17:51:38.892Z,84.67
2018-08-30T17:54:07.764Z,84.88
2018-08-30T17:56:36.724Z,84.83
2018-08-30T17:59:05.648Z,84.81
2018-08-30T18:01:35.778Z,84.70
2018-08-30T18:04:04.508Z,84.93
2018-08-30T18:06:34.254Z,84.95
2018-08-30T18:09:03.357Z,85.60
2018-08-30T18:11:32.013Z,85.76
2018-08-30T18:14:00.693Z,86.21
2018-08-30T18:16:29.165Z,85.70
2018-08-30T18:18:57.644Z,85.51
2018-08-30T18:21:26.460Z,85.45
2018-08-30T18:23:55.143Z,85.81
2018-08-30T18:26:23.634Z,85.89
2018-08-30T18:28:52.023Z,85.62
2018-08-30T18:31:20.624Z,85.73
2018-08-30T18:33:49.121Z,86.01
2018-08-30T18:36:17.719Z,85.89
2018-08-30T18:38:46.206Z,85.32
2018-08-30T18:41:14.669Z,86.11
2018-08-30T18:43:43.164Z,85.59
2018-08-30T18:46:11.893Z,85.91
2018-08-30T18:48:40.409Z,86.19
2018-08-30T18:51:08.993Z,86.52
2018-08-30T18:53:37.423Z,86.47
2018-08-30T18:56:05.979Z,86.09
2018-08-30T18:58:34.467Z,85.40
2018-08-30T19:01:02.956Z,85.65
2018-08-30T19:03:31.959Z,85.23
2018-08-30T19:06:00.747Z,85.23
2018-08-30T19:08:29.560Z,84.86
2018-08-30T19:11:03.620Z,84.34
2018-08-30T19:13:32.347Z,84.39
2018-08-30T19:16:06.452Z,84.98
2018-08-30T19:18:40.297Z,84.83
2018-08-30T19:21:26.587Z,84.88
2018-08-30T19:23:55.419Z,84.91
2018-08-30T19:26:23.908Z,84.92
2018-08-30T19:28:52.491Z,84.88
2018-08-30T19:31:21.253Z,84.85
2018-08-30T19:33:49.917Z,84.93
2018-08-30T19:36:23.547Z,84.91
2018-08-30T19:38:52.365Z,84.45
2018-08-30T19:41:22.499Z,85.08
2018-08-30T19:43:52.029Z,84.52
2018-08-30T19:46:21.324Z,85.40
2018-08-30T19:48:50.063Z,84.34
2018-08-30T19:51:24.073Z,84.85
2018-08-30T19:53:53.489Z,85.14
2018-08-30T19:56:22.109Z,84.61
2018-08-30T19:58:50.678Z,84.55
2018-08-30T20:01:19.157Z,84.27
2018-08-30T20:03:47.849Z,84.60
2018-08-30T20:06:16.460Z,84.35
2018-08-30T20:08:45.666Z,83.94
2018-08-30T20:11:14.318Z,84.34
2018-08-30T20:13:42.809Z,84.47
2018-08-30T20:16:11.651Z,84.04
2018-08-30T20:18:40.233Z,84.57
2018-08-30T20:21:10.452Z,84.93
2018-08-30T20:23:39.140Z,85.28
2018-08-30T20:26:07.642Z,85.00
2018-08-30T20:28:36.336Z,85.16
2018-08-30T20:31:09.969Z,85.47
2018-08-30T20:33:38.707Z,85.10
2018-08-30T20:36:07.550Z,86.02
2018-08-30T20:38:36.120Z,85.54
2018-08-30T20:41:09.693Z,85.25
2018-08-30T20:43:38.223Z,85.48
2018-08-30T20:46:07.128Z,84.93
2018-08-30T20:48:36.180Z,85.15
2018-08-30T20:51:04.765Z,84.49
2018-08-30T20:53:33.435Z,84.78
2018-08-30T20:56:02.149Z,83.91
2018-08-30T20:58:30.591Z,83.46
2018-08-30T21:00:59.182Z,83.87
2018-08-30T21:03:27.749Z,84.46
2018-08-30T21:05:56.278Z,84.42
2018-08-30T21:08:24.821Z,84.61
2018-08-30T21:10:53.435Z,84.62
2018-08-30T21:13:21.897Z,83.64
2018-08-30T21:15:50.497Z,84.16
2018-08-30T21:18:18.961Z,83.55
2018-08-30T21:20:47.527Z,83.80
2018-08-30T21:23:16.539Z,84.58
2018-08-30T21:25:45.620Z,84.58
2018-08-30T21:28:14.340Z,84.59
2018-08-30T21:30:43.013Z,84.55
2018-08-30T21:33:12.003Z,83.91
2018-08-30T21:35:41.225Z,83.33
2018-08-30T21:38:09.885Z,83.55
2018-08-30T21:40:38.491Z,84.13
2018-08-30T21:43:08.193Z,84.23
2018-08-30T21:45:37.653Z,83.60
2018-08-30T21:48:06.112Z,83.17
2018-08-30T21:50:48.337Z,84.13
2018-08-30T21:53:17.434Z,83.85
2018-08-30T21:55:46.950Z,83.59
2018-08-30T21:58:16.205Z,83.46
2018-08-30T22:00:45.355Z,84.01
2018-08-30T22:03:20.068Z,84.22
2018-08-30T22:05:54.269Z,83.79
2018-08-30T22:08:23.232Z,84.31
2018-08-30T22:10:52.533Z,84.13
2018-08-30T22:13:22.857Z,83.98
2018-08-30T22:15:52.092Z,83.93
2018-08-30T22:18:21.786Z,84.62
2018-08-30T22:20:51.462Z,84.46
2018-08-30T22:23:20.919Z,85.07
2018-08-30T22:25:50.006Z,84.73
2018-08-30T22:28:18.763Z,84.54
2018-08-30T22:30:48.198Z,84.41
2018-08-30T22:33:18.181Z,83.96
2018-08-30T22:35:47.103Z,84.21
2018-08-30T22:38:15.888Z,84.45
2018-08-30T22:40:45.309Z,84.43
2018-08-30T22:43:14.168Z,84.30
2018-08-30T22:45:42.672Z,84.69
2018-08-30T22:48:11.546Z,84.51
2018-08-30T22:50:40.701Z,84.05
2018-08-30T22:53:10.356Z,83.79
2018-08-30T22:55:39.720Z,84.37
2018-08-30T22:58:08.609Z,84.33
2018-08-30T23:00:37.120Z,84.17
2018-08-30T23:03:05.668Z,84.56
2018-08-30T23:05:34.148Z,84.46
2018-08-30T23:08:02.626Z,84.81
2018-08-30T23:10:31.255Z,85.76
2018-08-30T23:12:59.734Z,85.80
2018-08-30T23:15:28.212Z,86.38
2018-08-30T23:17:56.621Z,85.56
2018-08-30T23:20:25.100Z,85.47
2018-08-30T23:22:53.629Z,85.00
2018-08-30T23:25:22.195Z,84.90
2018-08-30T23:27:50.566Z,85.39
2018-08-30T23:30:19.060Z,85.78
2018-08-30T23:32:47.524Z,85.71
2018-08-30T23:35:15.962Z,84.61
2018-08-30T23:37:45.128Z,84.82
2018-08-30T23:40:13.605Z,84.55
2018-08-30T23:42:42.937Z,84.81
2018-08-30T23:45:11.400Z,84.18
2018-08-30T23:47:39.839Z,84.43
2018-08-30T23:50:08.314Z,84.10
2018-08-30T23:52:36.935Z,83.93
2018-08-30T23:55:05.544Z,83.89
2018-08-30T23:57:34.029Z,84.38
